FranceFixed distance
Ultra Trail des Montagnes du Jura - La Renarde
5 Oct2024
Distance
75km
Finishers
868725 men143 women
Winning time
7:00:22h
Median pace
6.25km/h
Pace distribution
868 finishers · 4.03–10.71 km/h · mean 6.33
Every finisher ran the same 75 km course, so these paces are directly comparable.
Histogram of finisher pace. 868 finishers ranged from 4.03 to 10.71 kilometres per hour, with a mean of 6.33 and a median of 6.25. The busiest band is 5.5 to 6.0 kilometres per hour, with 164 finishers.
Results
Ranks 351–400 of 868
| Rank | Runner | Time | Pace | Cat. | Placing |
|---|---|---|---|---|---|
| 351 | 11:33:05h | 6.49 | M23 | 323rd M · 162nd M23 | |
| 352 | Team 100 % BPM | 11:33:28h | 6.49 | M40 | 324th M · 43rd M40 |
| 353 | 11:34:17h | 6.48 | W35 | 29th F · 2nd W35 | |
| 354 | 11:34:53h | 6.48 | M35 | 325th M · 53rd M35 | |
| 355 | 11:35:49h | 6.47 | M55 | 326th M · 7th M55 | |
| 356 | Dlpk | 11:37:00h | 6.46 | M35 | 327th M · 54th M35 |
| 357 | 11:37:42h | 6.45 | M23 | 328th M · 163rd M23 | |
| 358 | 11:38:43h | 6.44 | M40 | 329th M · 44th M40 | |
| 359 | Sport Challenge Ethics | 11:38:50h | 6.44 | M35 | 330th M · 55th M35 |
| 360 | JHC TUC Dino Team | 11:38:51h | 6.44 | M40 | 331st M · 45th M40 |
| 361 | Courir À Bourg Blanc | 11:38:58h | 6.44 | M35 | 332nd M · 56th M35 |
| 362 | 11:39:07h | 6.44 | M35 | 333rd M · 57th M35 | |
| 363 | Team Trail Paris | 11:40:00h | 6.43 | M45 | 334th M · 33rd M45 |
| 364 | Espérance Endurance Trail | 11:40:12h | 6.43 | W23 | 30th F · 19th W23 |
| 365 | Asptt Verdun | 11:42:08h | 6.41 | M40 | 335th M · 46th M40 |
| 366 | Asptt Verdun | 11:42:09h | 6.41 | W45 | 31st F · 3rd W45 |
| 367 | 11:42:17h | 6.41 | M40 | 336th M · 47th M40 | |
| 368 | Team la Rochette | 11:42:37h | 6.41 | M50 | 337th M · 12th M50 |
| 369 | 11:43:13h | 6.40 | M23 | 338th M · 164th M23 | |
| 370 | 11:43:21h | 6.40 | M23 | 339th M · 165th M23 | |
| 371 | AC Limoux | 11:44:51h | 6.38 | M35 | 340th M · 58th M35 |
| 372 | Divonne Running | 11:44:59h | 6.38 | W23 | 32nd F · 20th W23 |
| 373 | Evian OFF Cours | 11:45:40h | 6.38 | M35 | 341st M · 59th M35 |
| 374 | LA Cavalcade | 11:46:00h | 6.37 | M45 | 342nd M · 34th M45 |
| 375 | 11:46:11h | 6.37 | M23 | 343rd M · 166th M23 | |
| 376 | 11:46:48h | 6.37 | M40 | 344th M · 48th M40 | |
| 377 | Asvbd Jogging | 11:47:15h | 6.36 | M40 | 345th M · 49th M40 |
| 378 | Club Alpin Macon | 11:48:03h | 6.36 | M50 | 346th M · 13th M50 |
| 379 | 11:48:29h | 6.35 | M23 | 347th M · 167th M23 | |
| 380 | Asso Trail Tournus | 11:48:30h | 6.35 | MU23 | 348th M · 18th MU23 |
| 380 | Asso Trail Tournus | 11:48:30h | 6.35 | MU23 | 348th M · 18th MU23 |
| 382 | Cacl | 11:48:35h | 6.35 | M45 | 350th M · 35th M45 |
| 383 | 11:48:38h | 6.35 | W23 | 33rd F · 21st W23 | |
| 384 | 11:48:40h | 6.35 | M23 | 351st M · 168th M23 | |
| 385 | Evian OFF Course | 11:49:27h | 6.34 | M40 | 352nd M · 50th M40 |
| 386 | 11:49:31h | 6.34 | M35 | 353rd M · 60th M35 | |
| 387 | MKP Team | 11:49:54h | 6.34 | M40 | 354th M · 51st M40 |
| 388 | 11:50:05h | 6.34 | M55 | 355th M · 8th M55 | |
| 389 | 11:50:10h | 6.34 | W23 | 34th F · 22nd W23 | |
| 390 | Team Trail Paris | 11:50:20h | 6.33 | M45 | 356th M · 36th M45 |
| 391 | 11:50:54h | 6.33 | M23 | 357th M · 169th M23 | |
| 391 | 11:50:54h | 6.33 | MU23 | 357th M · 20th MU23 | |
| 393 | 11:51:18h | 6.33 | W23 | 35th F · 23rd W23 | |
| 394 | Lille Running Team | 11:52:04h | 6.32 | M35 | 359th M · 61st M35 |
| 394 | 11:52:04h | 6.32 | M35 | 359th M · 61st M35 | |
| 396 | 11:52:09h | 6.32 | W23 | 36th F · 24th W23 | |
| 397 | Gsfm | 11:52:23h | 6.32 | M23 | 361st M · 170th M23 |
| 397 | 11:52:23h | 6.32 | M23 | 361st M · 170th M23 | |
| 399 | Tijj4Ever | 11:52:37h | 6.32 | W45 | 37th F · 4th W45 |
| 399 | Tijj4Ever | 11:52:37h | 6.32 | M45 | 363rd M · 37th M45 |
- 351323rd M · 162nd M23Time11:33:05hPace6.49Cat.M23
- 352Team 100 % BPM324th M · 43rd M40Time11:33:28hPace6.49Cat.M40
- 35329th F · 2nd W35Time11:34:17hPace6.48Cat.W35
- 354325th M · 53rd M35Time11:34:53hPace6.48Cat.M35
- 355326th M · 7th M55Time11:35:49hPace6.47Cat.M55
- 356Dlpk327th M · 54th M35Time11:37:00hPace6.46Cat.M35
- 357328th M · 163rd M23Time11:37:42hPace6.45Cat.M23
- 358329th M · 44th M40Time11:38:43hPace6.44Cat.M40
- 359Sport Challenge Ethics330th M · 55th M35Time11:38:50hPace6.44Cat.M35
- 360JHC TUC Dino Team331st M · 45th M40Time11:38:51hPace6.44Cat.M40
- 361Courir À Bourg Blanc332nd M · 56th M35Time11:38:58hPace6.44Cat.M35
- 362333rd M · 57th M35Time11:39:07hPace6.44Cat.M35
- 363Team Trail Paris334th M · 33rd M45Time11:40:00hPace6.43Cat.M45
- 364Espérance Endurance Trail30th F · 19th W23Time11:40:12hPace6.43Cat.W23
- 365Asptt Verdun335th M · 46th M40Time11:42:08hPace6.41Cat.M40
- 366Asptt Verdun31st F · 3rd W45Time11:42:09hPace6.41Cat.W45
- 367336th M · 47th M40Time11:42:17hPace6.41Cat.M40
- 368Team la Rochette337th M · 12th M50Time11:42:37hPace6.41Cat.M50
- 369338th M · 164th M23Time11:43:13hPace6.40Cat.M23
- 370339th M · 165th M23Time11:43:21hPace6.40Cat.M23
- 371AC Limoux340th M · 58th M35Time11:44:51hPace6.38Cat.M35
- 372Divonne Running32nd F · 20th W23Time11:44:59hPace6.38Cat.W23
- 373Evian OFF Cours341st M · 59th M35Time11:45:40hPace6.38Cat.M35
- 374LA Cavalcade342nd M · 34th M45Time11:46:00hPace6.37Cat.M45
- 375343rd M · 166th M23Time11:46:11hPace6.37Cat.M23
- 376344th M · 48th M40Time11:46:48hPace6.37Cat.M40
- 377Asvbd Jogging345th M · 49th M40Time11:47:15hPace6.36Cat.M40
- 378Club Alpin Macon346th M · 13th M50Time11:48:03hPace6.36Cat.M50
- 379347th M · 167th M23Time11:48:29hPace6.35Cat.M23
- 380Asso Trail Tournus348th M · 18th MU23Time11:48:30hPace6.35Cat.MU23
- 380Asso Trail Tournus348th M · 18th MU23Time11:48:30hPace6.35Cat.MU23
- 382Cacl350th M · 35th M45Time11:48:35hPace6.35Cat.M45
- 38333rd F · 21st W23Time11:48:38hPace6.35Cat.W23
- 384351st M · 168th M23Time11:48:40hPace6.35Cat.M23
- 385Evian OFF Course352nd M · 50th M40Time11:49:27hPace6.34Cat.M40
- 386353rd M · 60th M35Time11:49:31hPace6.34Cat.M35
- 387MKP Team354th M · 51st M40Time11:49:54hPace6.34Cat.M40
- 388355th M · 8th M55Time11:50:05hPace6.34Cat.M55
- 38934th F · 22nd W23Time11:50:10hPace6.34Cat.W23
- 390Team Trail Paris356th M · 36th M45Time11:50:20hPace6.33Cat.M45
- 391357th M · 169th M23Time11:50:54hPace6.33Cat.M23
- 391357th M · 20th MU23Time11:50:54hPace6.33Cat.MU23
- 39335th F · 23rd W23Time11:51:18hPace6.33Cat.W23
- 394Lille Running Team359th M · 61st M35Time11:52:04hPace6.32Cat.M35
- 394359th M · 61st M35Time11:52:04hPace6.32Cat.M35
- 39636th F · 24th W23Time11:52:09hPace6.32Cat.W23
- 397Gsfm361st M · 170th M23Time11:52:23hPace6.32Cat.M23
- 397361st M · 170th M23Time11:52:23hPace6.32Cat.M23
- 399Tijj4Ever37th F · 4th W45Time11:52:37hPace6.32Cat.W45
- 399Tijj4Ever363rd M · 37th M45Time11:52:37hPace6.32Cat.M45
Showing ranks 351–400 of 868